createdAt,value
2019-03-30T00:01:11.128Z,10.10
2019-03-30T00:03:41.666Z,10.00
2019-03-30T00:06:12.196Z,9.90
2019-03-30T00:08:42.712Z,9.70
2019-03-30T00:11:13.284Z,9.50
2019-03-30T00:13:43.831Z,9.60
2019-03-30T00:16:14.344Z,9.80
2019-03-30T00:18:44.776Z,9.80
2019-03-30T00:21:15.623Z,9.90
2019-03-30T00:23:46.117Z,9.80
2019-03-30T00:26:16.749Z,9.70
2019-03-30T00:28:47.210Z,9.60
2019-03-30T00:31:17.800Z,9.70
2019-03-30T00:33:48.691Z,9.60
2019-03-30T00:36:19.105Z,9.60
2019-03-30T00:38:49.586Z,9.50
2019-03-30T00:41:20.375Z,9.40
2019-03-30T00:43:50.885Z,9.50
2019-03-30T00:46:21.649Z,9.50
2019-03-30T00:48:52.021Z,9.50
2019-03-30T00:51:22.678Z,9.40
2019-03-30T00:53:53.439Z,9.30
2019-03-30T00:56:24.073Z,9.40
2019-03-30T00:58:54.582Z,9.40
2019-03-30T01:01:25.100Z,9.40
2019-03-30T01:03:56.590Z,9.30
2019-03-30T01:06:27.055Z,9.30
2019-03-30T01:08:57.614Z,9.30
2019-03-30T01:11:28.173Z,9.20
2019-03-30T01:13:58.597Z,9.20
2019-03-30T01:16:29.420Z,9.20
2019-03-30T01:18:59.929Z,9.30
2019-03-30T01:21:30.363Z,9.10
2019-03-30T01:24:00.875Z,9.30
2019-03-30T01:26:31.459Z,9.40
2019-03-30T01:29:01.974Z,9.50
2019-03-30T01:31:32.609Z,9.50
2019-03-30T01:34:03.316Z,9.50
2019-03-30T01:36:33.739Z,9.60
2019-03-30T01:39:05.860Z,9.50
2019-03-30T01:41:36.379Z,9.40
2019-03-30T01:44:07.142Z,9.40
2019-03-30T01:46:37.841Z,9.30
2019-03-30T01:49:08.268Z,9.30
2019-03-30T01:51:38.786Z,9.30
2019-03-30T01:54:09.584Z,9.20
2019-03-30T01:56:39.995Z,9.20
2019-03-30T01:59:10.501Z,9.10
2019-03-30T02:01:40.952Z,9.00
2019-03-30T02:04:11.792Z,9.00
2019-03-30T02:06:42.587Z,9.00
2019-03-30T02:09:13.078Z,8.90
2019-03-30T02:11:43.774Z,8.80
2019-03-30T02:14:14.210Z,8.80
2019-03-30T02:16:44.990Z,8.80
2019-03-30T02:19:15.516Z,8.70
2019-03-30T02:21:46.023Z,8.70
2019-03-30T02:24:16.508Z,8.60
2019-03-30T02:26:47.102Z,8.70
2019-03-30T02:29:18.677Z,8.60
2019-03-30T02:31:49.748Z,8.60
2019-03-30T02:34:20.470Z,8.60
2019-03-30T02:36:51.080Z,8.50
2019-03-30T02:39:21.679Z,8.50
2019-03-30T02:41:52.175Z,8.40
2019-03-30T02:44:22.735Z,8.30
2019-03-30T02:46:53.577Z,8.30
2019-03-30T02:49:24.213Z,8.30
2019-03-30T02:51:54.898Z,8.30
2019-03-30T02:54:25.419Z,8.30
2019-03-30T02:56:56.173Z,8.20
2019-03-30T02:59:26.550Z,8.20
2019-03-30T03:01:57.131Z,8.20
2019-03-30T03:04:27.641Z,8.20
2019-03-30T03:06:58.364Z,8.30
2019-03-30T03:09:28.820Z,8.20
2019-03-30T03:11:59.499Z,8.20
2019-03-30T03:14:29.922Z,8.20
2019-03-30T03:17:00.444Z,8.20
2019-03-30T03:19:31.288Z,8.20
2019-03-30T03:22:01.817Z,8.20
2019-03-30T03:24:32.357Z,8.10
2019-03-30T03:27:02.976Z,8.00
2019-03-30T03:29:33.533Z,8.00
2019-03-30T03:32:04.162Z,8.00
2019-03-30T03:34:34.654Z,8.00
2019-03-30T03:37:05.281Z,8.10
2019-03-30T03:39:35.771Z,8.00
2019-03-30T03:42:06.301Z,8.00
2019-03-30T03:44:36.861Z,8.00
2019-03-30T03:47:07.469Z,8.00
2019-03-30T03:49:38.003Z,8.00
2019-03-30T03:52:08.937Z,8.00
2019-03-30T03:54:39.497Z,7.90
2019-03-30T03:57:12.661Z,8.00
2019-03-30T03:59:43.902Z,7.90
2019-03-30T04:02:16.945Z,7.90
2019-03-30T04:04:48.598Z,7.90
2019-03-30T04:07:20.405Z,7.70
2019-03-30T04:09:52.315Z,7.70
2019-03-30T04:12:24.288Z,7.70
2019-03-30T04:14:55.206Z,7.70
2019-03-30T04:17:25.787Z,7.90
2019-03-30T04:19:56.319Z,7.90
2019-03-30T04:22:26.875Z,7.90
2019-03-30T04:24:57.681Z,8.00
2019-03-30T04:27:28.158Z,7.80
2019-03-30T04:29:58.794Z,7.70
2019-03-30T04:32:29.383Z,7.70
2019-03-30T04:35:00.482Z,7.90
2019-03-30T04:37:30.950Z,7.80
2019-03-30T04:40:01.552Z,7.90
2019-03-30T04:42:32.205Z,7.80
2019-03-30T04:45:02.713Z,7.70
2019-03-30T04:47:33.212Z,7.80
2019-03-30T04:50:03.774Z,7.80
2019-03-30T04:52:34.569Z,7.80
2019-03-30T04:55:05.144Z,7.70
2019-03-30T04:57:35.869Z,7.60
2019-03-30T05:00:07.768Z,7.60
2019-03-30T05:02:38.285Z,7.50
2019-03-30T05:05:09.079Z,7.40
2019-03-30T05:07:39.842Z,7.30
2019-03-30T05:10:10.436Z,7.30
2019-03-30T05:12:40.962Z,7.30
2019-03-30T05:15:11.743Z,7.30
2019-03-30T05:17:47.596Z,7.30
2019-03-30T05:20:14.917Z,7.20
2019-03-30T05:22:45.417Z,7.10
2019-03-30T05:25:15.940Z,7.20
2019-03-30T05:27:46.378Z,7.20
2019-03-30T05:30:17.881Z,7.20
2019-03-30T05:32:48.440Z,7.20
2019-03-30T05:35:18.961Z,7.20
2019-03-30T05:37:49.397Z,7.20
2019-03-30T05:40:19.909Z,7.20
2019-03-30T05:42:50.662Z,7.10
2019-03-30T05:45:21.196Z,7.20
2019-03-30T05:47:51.963Z,7.10
2019-03-30T05:50:22.473Z,7.10
2019-03-30T05:52:53.139Z,7.20
2019-03-30T05:55:23.698Z,7.20
2019-03-30T05:57:54.449Z,7.20
2019-03-30T06:00:25.966Z,7.30
2019-03-30T06:02:56.613Z,7.30
2019-03-30T06:05:27.853Z,7.30
2019-03-30T06:07:58.770Z,7.50
2019-03-30T06:10:29.317Z,7.60
2019-03-30T06:13:00.554Z,7.60
2019-03-30T06:15:31.383Z,7.60
2019-03-30T06:18:02.430Z,7.80
2019-03-30T06:20:33.271Z,7.70
2019-03-30T06:23:04.113Z,7.90
2019-03-30T06:25:34.644Z,7.90
2019-03-30T06:28:05.151Z,8.00
2019-03-30T06:30:35.662Z,8.10
2019-03-30T06:33:06.182Z,8.10
2019-03-30T06:35:36.815Z,8.20
2019-03-30T06:38:07.580Z,8.20
2019-03-30T06:40:38.120Z,8.30
2019-03-30T06:43:09.170Z,8.40
2019-03-30T06:45:39.763Z,8.50
2019-03-30T06:48:10.640Z,8.60
2019-03-30T06:50:41.483Z,8.60
2019-03-30T06:53:12.152Z,8.80
2019-03-30T06:55:42.576Z,8.90
2019-03-30T06:58:13.474Z,9.00
2019-03-30T07:00:45.450Z,9.10
2019-03-30T07:03:16.773Z,9.20
2019-03-30T07:05:47.609Z,9.40
2019-03-30T07:08:18.701Z,9.30
2019-03-30T07:10:49.823Z,9.50
2019-03-30T07:13:20.740Z,9.70
2019-03-30T07:15:51.374Z,9.80
2019-03-30T07:18:21.891Z,10.10
2019-03-30T07:20:52.448Z,10.20
2019-03-30T07:23:22.933Z,10.30
2019-03-30T07:25:54.120Z,10.30
2019-03-30T07:28:24.669Z,10.50
2019-03-30T07:30:55.205Z,10.70
2019-03-30T07:33:26.871Z,10.90
2019-03-30T07:35:57.544Z,10.80
2019-03-30T07:38:28.071Z,10.80
2019-03-30T07:40:58.585Z,10.80
2019-03-30T07:43:29.138Z,11.10
2019-03-30T07:46:00.147Z,11.30
2019-03-30T07:48:30.686Z,11.70
2019-03-30T07:51:01.277Z,11.60
2019-03-30T07:53:43.808Z,11.90
2019-03-30T07:56:08.646Z,11.80
2019-03-30T07:58:38.072Z,12.10
2019-03-30T08:01:08.956Z,12.20
2019-03-30T08:03:39.802Z,12.60
2019-03-30T08:06:10.615Z,12.70
2019-03-30T08:08:41.555Z,12.70
2019-03-30T08:11:14.387Z,13.00
2019-03-30T08:13:44.239Z,13.20
2019-03-30T08:16:14.752Z,13.20
2019-03-30T08:18:45.359Z,13.40
2019-03-30T08:21:16.306Z,13.70
2019-03-30T08:23:46.823Z,13.80
2019-03-30T08:26:17.358Z,13.60
2019-03-30T08:28:47.771Z,13.60
2019-03-30T08:31:18.948Z,13.90
2019-03-30T08:33:49.501Z,14.30
2019-03-30T08:36:20.372Z,14.20
2019-03-30T08:38:50.895Z,14.30
2019-03-30T08:41:21.883Z,14.40
2019-03-30T08:43:52.399Z,14.80
2019-03-30T08:46:22.888Z,15.00
2019-03-30T08:48:53.456Z,15.20
2019-03-30T08:51:24.053Z,15.10
2019-03-30T08:53:55.179Z,15.10
2019-03-30T08:56:27.995Z,15.40
2019-03-30T08:58:58.417Z,15.60
2019-03-30T09:01:28.923Z,15.70
2019-03-30T09:03:59.438Z,16.10
2019-03-30T09:06:29.939Z,16.20
2019-03-30T09:09:00.365Z,16.20
2019-03-30T09:11:30.950Z,16.20
2019-03-30T09:14:01.394Z,16.30
2019-03-30T09:16:32.335Z,16.50
2019-03-30T09:19:02.910Z,16.90
2019-03-30T09:21:34.244Z,16.80
2019-03-30T09:24:09.833Z,16.60
2019-03-30T09:26:36.892Z,16.80
2019-03-30T09:29:07.518Z,16.90
2019-03-30T09:31:38.028Z,17.40
2019-03-30T09:34:09.059Z,17.50
2019-03-30T09:36:40.001Z,17.40
2019-03-30T09:39:11.250Z,17.40
2019-03-30T09:41:41.763Z,17.60
2019-03-30T09:44:12.132Z,18.00
2019-03-30T09:46:43.138Z,17.80
2019-03-30T09:49:14.380Z,17.90
2019-03-30T09:51:44.814Z,18.10
2019-03-30T09:54:23.476Z,18.30
2019-03-30T09:56:47.958Z,18.40
2019-03-30T09:59:18.604Z,18.50
2019-03-30T10:01:49.236Z,18.50
2019-03-30T10:04:19.862Z,18.70
2019-03-30T10:06:51.757Z,19.00
2019-03-30T10:09:22.346Z,18.80
2019-03-30T10:11:52.876Z,18.70
2019-03-30T10:14:23.424Z,18.60
2019-03-30T10:16:53.923Z,19.10
2019-03-30T10:19:27.713Z,18.80
2019-03-30T10:21:56.671Z,19.10
2019-03-30T10:24:37.878Z,19.20
2019-03-30T10:26:59.779Z,19.60
2019-03-30T10:29:31.169Z,19.80
2019-03-30T10:32:01.810Z,20.00
2019-03-30T10:34:32.380Z,19.70
2019-03-30T10:37:03.140Z,19.50
2019-03-30T10:39:34.061Z,19.40
2019-03-30T10:42:04.627Z,19.00
2019-03-30T10:44:35.290Z,18.90
2019-03-30T10:47:05.822Z,19.20
2019-03-30T10:49:36.597Z,19.60
2019-03-30T10:52:07.367Z,19.60
2019-03-30T10:54:51.708Z,19.60
2019-03-30T10:57:10.962Z,19.10
2019-03-30T10:59:41.424Z,18.80
2019-03-30T11:02:12.010Z,18.70
2019-03-30T11:04:42.618Z,18.80
2019-03-30T11:07:13.137Z,18.60
2019-03-30T11:09:43.558Z,18.60
2019-03-30T11:12:14.341Z,18.80
2019-03-30T11:14:45.174Z,18.60
2019-03-30T11:17:19.238Z,18.60
2019-03-30T11:19:48.213Z,18.60
2019-03-30T11:22:18.746Z,19.20
2019-03-30T11:24:49.354Z,19.20
2019-03-30T11:27:19.867Z,18.70
2019-03-30T11:29:50.820Z,18.80
2019-03-30T11:32:21.650Z,18.90
2019-03-30T11:34:52.191Z,18.80
2019-03-30T11:37:22.779Z,18.70
2019-03-30T11:39:53.364Z,18.90
2019-03-30T11:42:23.967Z,19.60
2019-03-30T11:44:54.573Z,18.60
2019-03-30T11:47:25.185Z,18.20
2019-03-30T11:49:55.642Z,18.30
2019-03-30T11:52:26.180Z,18.40
2019-03-30T11:54:56.638Z,18.80
2019-03-30T11:57:27.170Z,18.90
2019-03-30T11:59:58.002Z,18.40
2019-03-30T12:02:28.635Z,18.00
2019-03-30T12:04:59.653Z,18.30
2019-03-30T12:07:30.264Z,18.20
2019-03-30T12:10:00.699Z,18.20
2019-03-30T12:12:31.379Z,18.20
2019-03-30T12:15:01.965Z,18.30
2019-03-30T12:17:32.576Z,18.30
2019-03-30T12:20:03.181Z,18.60
2019-03-30T12:22:33.611Z,18.60
2019-03-30T12:25:04.350Z,18.00
2019-03-30T12:27:34.973Z,17.70
2019-03-30T12:30:05.874Z,17.70
2019-03-30T12:32:36.332Z,17.60
2019-03-30T12:35:07.363Z,17.90
2019-03-30T12:37:37.819Z,18.50
2019-03-30T12:40:08.502Z,18.90
2019-03-30T12:42:39.348Z,19.40
2019-03-30T12:45:09.959Z,19.70
2019-03-30T12:47:40.565Z,19.20
2019-03-30T12:50:11.074Z,19.40
2019-03-30T12:52:41.589Z,19.40
2019-03-30T12:55:12.682Z,19.40
2019-03-30T12:57:43.855Z,19.10
2019-03-30T13:00:14.493Z,18.80
2019-03-30T13:02:46.065Z,19.10
2019-03-30T13:05:16.566Z,18.60
2019-03-30T13:07:47.094Z,18.40
2019-03-30T13:10:17.948Z,18.70
2019-03-30T13:12:48.603Z,19.30
2019-03-30T13:15:19.124Z,19.60
2019-03-30T13:17:49.665Z,19.40
2019-03-30T13:20:20.184Z,19.40
2019-03-30T13:22:50.959Z,19.00
2019-03-30T13:25:21.500Z,18.70
2019-03-30T13:27:53.389Z,18.90
2019-03-30T13:30:25.275Z,19.40
2019-03-30T13:32:55.816Z,19.90
2019-03-30T13:35:26.268Z,20.50
2019-03-30T13:37:56.767Z,20.40
2019-03-30T13:40:27.287Z,20.30
2019-03-30T13:42:57.790Z,20.70
2019-03-30T13:45:28.658Z,19.90
2019-03-30T13:47:59.149Z,19.20
2019-03-30T13:50:31.113Z,19.00
2019-03-30T13:53:02.286Z,19.70
2019-03-30T13:55:32.776Z,19.80
2019-03-30T13:58:04.531Z,19.30
2019-03-30T14:00:35.638Z,19.60
2019-03-30T14:03:06.342Z,20.20
2019-03-30T14:05:37.000Z,19.90
2019-03-30T14:08:07.523Z,19.30
2019-03-30T14:10:39.189Z,19.00
2019-03-30T14:13:09.973Z,19.00
2019-03-30T14:15:40.432Z,19.50
2019-03-30T14:18:10.952Z,19.80
2019-03-30T14:20:41.368Z,20.10
2019-03-30T14:23:12.370Z,19.80
2019-03-30T14:25:42.809Z,19.50
2019-03-30T14:28:13.314Z,19.30
2019-03-30T14:30:43.835Z,19.00
2019-03-30T14:33:14.695Z,18.60
2019-03-30T14:35:45.224Z,18.50
2019-03-30T14:38:15.873Z,18.80
2019-03-30T14:40:46.477Z,19.10
2019-03-30T14:43:17.007Z,19.60
2019-03-30T14:45:47.720Z,19.80
2019-03-30T14:48:18.583Z,19.20
2019-03-30T14:50:49.457Z,18.90
2019-03-30T14:53:20.018Z,18.50
2019-03-30T14:55:50.812Z,18.80
2019-03-30T14:58:21.236Z,18.90
2019-03-30T15:00:51.773Z,19.10
2019-03-30T15:03:22.358Z,19.30
2019-03-30T15:05:52.895Z,19.00
2019-03-30T15:08:23.325Z,19.20
2019-03-30T15:10:53.855Z,19.10
2019-03-30T15:13:25.776Z,18.90
2019-03-30T15:15:56.341Z,18.80
2019-03-30T15:18:26.838Z,18.30
2019-03-30T15:20:57.489Z,18.10
2019-03-30T15:23:28.010Z,18.00
2019-03-30T15:25:58.838Z,18.40
2019-03-30T15:28:29.637Z,18.70
2019-03-30T15:31:00.585Z,18.50
2019-03-30T15:33:32.180Z,18.60
2019-03-30T15:36:02.990Z,18.30
2019-03-30T15:38:33.701Z,17.90
2019-03-30T15:41:04.226Z,17.80
2019-03-30T15:43:38.553Z,18.10
2019-03-30T15:46:07.238Z,18.60
2019-03-30T15:48:37.756Z,18.70
2019-03-30T15:51:08.301Z,18.50
2019-03-30T15:53:39.070Z,18.60
2019-03-30T15:56:09.588Z,18.60
2019-03-30T15:58:40.190Z,18.50
2019-03-30T16:01:11.278Z,18.50
2019-03-30T16:03:43.035Z,18.90
2019-03-30T16:06:13.477Z,18.60
2019-03-30T16:08:44.611Z,18.40
2019-03-30T16:11:15.146Z,18.40
2019-03-30T16:13:45.739Z,18.00
2019-03-30T16:16:16.192Z,18.00
2019-03-30T16:18:46.772Z,17.80
2019-03-30T16:21:17.415Z,17.60
2019-03-30T16:23:47.934Z,17.60
2019-03-30T16:26:18.726Z,17.40
2019-03-30T16:28:49.257Z,17.30
2019-03-30T16:31:19.890Z,17.20
2019-03-30T16:33:50.558Z,17.10
2019-03-30T16:36:21.346Z,17.10
2019-03-30T16:38:51.872Z,17.20
2019-03-30T16:41:22.506Z,17.30
2019-03-30T16:43:53.079Z,17.50
2019-03-30T16:46:23.772Z,17.60
2019-03-30T16:48:54.290Z,17.60
2019-03-30T16:51:25.074Z,17.70
2019-03-30T16:53:55.536Z,17.80
2019-03-30T16:56:26.062Z,17.70
2019-03-30T16:58:56.579Z,17.60
2019-03-30T17:01:27.080Z,17.50
2019-03-30T17:03:57.856Z,17.60
2019-03-30T17:06:28.397Z,17.50
2019-03-30T17:08:58.929Z,17.40
2019-03-30T17:11:29.437Z,17.30
2019-03-30T17:13:59.976Z,17.20
2019-03-30T17:16:30.486Z,17.10
2019-03-30T17:19:00.982Z,17.10
2019-03-30T17:21:31.528Z,17.00
2019-03-30T17:24:02.036Z,16.70
2019-03-30T17:26:32.585Z,16.70
2019-03-30T17:29:03.072Z,16.50
2019-03-30T17:31:34.078Z,16.40
2019-03-30T17:34:05.331Z,16.30
2019-03-30T17:36:35.900Z,16.20
2019-03-30T17:39:10.280Z,16.10
2019-03-30T17:41:40.723Z,16.00
2019-03-30T17:44:11.610Z,15.90
2019-03-30T17:46:42.277Z,15.70
2019-03-30T17:49:13.062Z,15.60
2019-03-30T17:51:43.618Z,15.50
2019-03-30T17:54:15.280Z,15.40
2019-03-30T17:56:45.803Z,15.40
2019-03-30T17:59:16.435Z,15.30
2019-03-30T18:01:47.118Z,15.30
2019-03-30T18:04:17.659Z,15.20
2019-03-30T18:06:48.193Z,15.20
2019-03-30T18:09:18.785Z,15.10
2019-03-30T18:11:49.630Z,15.00
2019-03-30T18:14:20.145Z,15.00
2019-03-30T18:16:50.670Z,15.00
2019-03-30T18:19:21.941Z,14.90
2019-03-30T18:21:52.457Z,14.80
2019-03-30T18:24:23.016Z,14.80
2019-03-30T18:26:53.545Z,14.70
2019-03-30T18:29:24.489Z,14.70
2019-03-30T18:31:55.025Z,14.60
2019-03-30T18:34:26.084Z,14.60
2019-03-30T18:36:57.050Z,14.70
2019-03-30T18:39:27.605Z,14.60
2019-03-30T18:41:58.051Z,14.60
2019-03-30T18:44:28.622Z,14.60
2019-03-30T18:46:59.055Z,14.50
2019-03-30T18:49:29.688Z,14.50
2019-03-30T18:52:01.132Z,14.50
2019-03-30T18:54:31.762Z,14.40
2019-03-30T18:57:02.754Z,14.40
2019-03-30T18:59:33.316Z,14.30
2019-03-30T19:02:03.814Z,14.30
2019-03-30T19:04:34.584Z,14.20
2019-03-30T19:07:05.384Z,14.20
2019-03-30T19:09:35.961Z,14.20
2019-03-30T19:12:06.540Z,14.10
2019-03-30T19:14:37.042Z,14.10
2019-03-30T19:17:07.663Z,14.10
2019-03-30T19:19:38.186Z,14.00
2019-03-30T19:22:08.875Z,14.00
2019-03-30T19:24:39.374Z,13.90
2019-03-30T19:27:09.846Z,13.90
2019-03-30T19:29:40.430Z,13.90
2019-03-30T19:32:11.223Z,13.80
2019-03-30T19:34:41.693Z,13.80
2019-03-30T19:37:13.184Z,13.70
2019-03-30T19:39:43.734Z,13.70
2019-03-30T19:42:15.980Z,13.60
2019-03-30T19:44:48.116Z,13.60
2019-03-30T19:47:18.977Z,13.60
2019-03-30T19:49:49.753Z,13.50
2019-03-30T19:52:20.514Z,13.50
2019-03-30T19:54:51.123Z,13.40
2019-03-30T19:57:21.477Z,13.40
2019-03-30T19:59:51.998Z,13.40
2019-03-30T20:02:22.448Z,13.40
2019-03-30T20:04:53.874Z,13.30
2019-03-30T20:07:24.811Z,13.30
2019-03-30T20:09:55.362Z,13.30
2019-03-30T20:12:25.863Z,13.50
2019-03-30T20:14:56.515Z,13.60
2019-03-30T20:17:27.421Z,13.50
2019-03-30T20:19:57.969Z,13.60
2019-03-30T20:22:28.498Z,13.40
2019-03-30T20:24:59.121Z,13.10
2019-03-30T20:27:30.027Z,13.10
2019-03-30T20:30:00.562Z,13.30
2019-03-30T20:32:31.144Z,13.20
2019-03-30T20:35:01.774Z,13.20
2019-03-30T20:37:32.430Z,12.90
2019-03-30T20:40:02.950Z,12.80
2019-03-30T20:42:34.542Z,12.70
2019-03-30T20:45:06.845Z,12.70
2019-03-30T20:47:38.650Z,12.80
2019-03-30T20:50:09.628Z,12.70
2019-03-30T20:52:40.197Z,12.80
2019-03-30T20:55:10.849Z,12.70
2019-03-30T20:57:41.442Z,12.80
2019-03-30T21:00:12.170Z,12.60
2019-03-30T21:02:43.063Z,12.60
2019-03-30T21:05:14.108Z,12.50
2019-03-30T21:07:44.622Z,12.60
2019-03-30T21:10:15.387Z,12.70
2019-03-30T21:12:45.976Z,12.80
2019-03-30T21:15:16.580Z,12.70
2019-03-30T21:17:47.069Z,12.70
2019-03-30T21:20:18.129Z,12.70
2019-03-30T21:22:48.700Z,12.70
2019-03-30T21:25:19.623Z,12.70
2019-03-30T21:27:50.597Z,12.70
2019-03-30T21:30:22.044Z,12.80
2019-03-30T21:32:53.312Z,12.90
2019-03-30T21:35:24.263Z,12.90
2019-03-30T21:37:58.322Z,13.00
2019-03-30T21:40:27.432Z,12.90
2019-03-30T21:42:58.412Z,12.80
2019-03-30T21:45:29.229Z,12.80
2019-03-30T21:47:59.778Z,12.60
2019-03-30T21:50:30.601Z,12.40
2019-03-30T21:53:01.446Z,12.40
2019-03-30T21:55:31.959Z,12.40
2019-03-30T21:58:02.438Z,12.70
2019-03-30T22:00:37.194Z,12.70
2019-03-30T22:03:08.080Z,12.80
2019-03-30T22:05:40.259Z,12.90
2019-03-30T22:08:10.807Z,12.70
2019-03-30T22:10:41.372Z,12.60
2019-03-30T22:13:11.975Z,12.50
2019-03-30T22:15:42.424Z,12.60
2019-03-30T22:18:12.984Z,12.40
2019-03-30T22:20:44.211Z,12.20
2019-03-30T22:23:15.047Z,12.20
2019-03-30T22:25:45.575Z,12.00
2019-03-30T22:28:16.191Z,11.90
2019-03-30T22:30:46.642Z,12.00
2019-03-30T22:33:18.558Z,12.00
2019-03-30T22:35:49.110Z,12.00
2019-03-30T22:38:19.706Z,11.90
2019-03-30T22:40:51.648Z,12.00
2019-03-30T22:43:22.170Z,12.00
2019-03-30T22:45:52.741Z,12.20
2019-03-30T22:48:23.315Z,12.20
2019-03-30T22:50:54.206Z,12.20
2019-03-30T22:53:24.830Z,12.30
2019-03-30T22:55:55.373Z,12.30
2019-03-30T22:58:25.826Z,12.10
2019-03-30T23:01:08.902Z,12.10
2019-03-30T23:03:41.119Z,12.00
2019-03-30T23:06:11.638Z,12.00
2019-03-30T23:08:42.305Z,11.90
2019-03-30T23:11:12.811Z,11.90
2019-03-30T23:13:43.323Z,12.10
2019-03-30T23:16:14.211Z,11.90
2019-03-30T23:18:45.443Z,11.70
2019-03-30T23:21:16.180Z,11.60
2019-03-30T23:23:46.738Z,11.60
2019-03-30T23:26:17.194Z,11.60
2019-03-30T23:28:47.768Z,11.40
2019-03-30T23:31:18.245Z,11.40
2019-03-30T23:33:48.650Z,11.60
2019-03-30T23:36:19.197Z,11.60
2019-03-30T23:38:49.689Z,11.70
2019-03-30T23:41:20.643Z,11.50
2019-03-30T23:43:51.188Z,11.70
2019-03-30T23:46:21.775Z,11.70
2019-03-30T23:48:52.314Z,11.80
2019-03-30T23:51:22.962Z,11.60
2019-03-30T23:53:53.870Z,11.60
2019-03-30T23:56:26.187Z,11.70
2019-03-30T23:58:57.128Z,11.70
